Flight Track Log - Related Links

Times and Time Zones

All times are in EST time to prevent confusion due to time zone crossing. See the TCF3494 flight status page for this flight to view local times or setup timezone preferences in your user account.

Time Position Orientation Groundspeed Altitude Reporting Facility
EST Latitude Longitude Course Direction KTS MPH feet Rate Location/Type
Mon 06:35:16 PM 40.9075 -111.9914 354° North 222 255 8,000  Level Salt Lake Center
Mon 06:36:17 PM 40.9806 -112.0008 354° North 261 300 10,900 2,390 Climbing Salt Lake Center
Mon 06:37:19 PM 41.0256 -111.8958 60° Northeast 335 386 12,900 2,098 Climbing Salt Lake Center
Mon 06:38:20 PM 41.0261 -111.7756 90° East 358 412 15,200 2,361 Climbing Salt Lake Center
Mon 06:39:21 PM 41.0483 -111.6494 77° East 354 407 17,700 2,195 Climbing Salt Lake Center
Mon 06:40:23 PM 41.0758 -111.5231 74° East 358 412 19,700 1,707 Climbing Salt Lake Center
Mon 06:41:24 PM 41.1122 -111.3567 74° East 395 455 21,200 1,610 Climbing Salt Lake Center
Mon 06:42:26 PM 41.1428 -111.2108 74° East 409 471 23,000 1,610 Climbing Salt Lake Center
Mon 06:43:27 PM 41.1753 -111.0589 74° East 423 487 24,500 1,463 Climbing Salt Lake Center
Mon 06:44:29 PM 41.2097 -110.8950 74° East 435 501 26,000 1,317 Climbing Salt Lake Center
Mon 06:45:30 PM 41.2411 -110.7444 74° East 441 507 27,200 1,082 Climbing Salt Lake Center
Mon 06:46:31 PM 41.2736 -110.5883 74° East 452 520 28,200 1,024 Climbing Salt Lake Center
Mon 06:47:33 PM 41.3125 -110.4053 74° East 461 531 29,300 829 Climbing Salt Lake Center
Mon 06:48:34 PM 41.3458 -110.2444 75° East 470 541 29,900 927 Climbing Salt Lake Center
Mon 06:49:36 PM 41.3839 -110.0561 75° East 471 542 31,200 1,073 Climbing Salt Lake Center
Mon 06:50:37 PM 41.4172 -109.8947 75° East 473 544 32,100 885 Climbing Salt Lake Center
Mon 06:51:38 PM 41.4494 -109.7336 75° East 472 543 33,000 878 Climbing Salt Lake Center
Mon 06:52:40 PM 41.4869 -109.5439 75° East 472 543 33,900 829 Climbing Salt Lake Center
Mon 06:53:41 PM 41.5197 -109.3817 75° East 471 542 34,700 537 Climbing Salt Lake Center
Mon 06:54:43 PM 41.5581 -109.1872 75° East 476 548 35,000 146 Climbing Salt Lake Center
Mon 06:55:44 PM 41.5886 -109.0139 77° East 488 562 35,000  Level Salt Lake Center
Mon 06:56:45 PM 41.6044 -108.8375 83° East 494 568 35,000  Level Salt Lake Center
Mon 06:57:47 PM 41.6203 -108.6328 84° East 494 568 35,000  Level Salt Lake Center
Mon 06:58:48 PM 41.6328 -108.4578 84° East 495 570 35,000  Level Salt Lake Center
Mon 06:59:50 PM 41.6447 -108.2808 85° East 498 573 35,000  Level Salt Lake Center
Mon 07:00:51 PM 41.6611 -108.0758 84° East 497 572 35,000  Level Salt Lake Center
Mon 07:01:53 PM 41.6731 -107.8978 85° East 502 578 35,000  Level Salt Lake Center
Mon 07:02:54 PM 41.6878 -107.6914 84° East 500 575 35,000  Level Salt Lake Center
Mon 07:03:55 PM 41.6983 -107.5128 85° East 502 578 35,000  Level Salt Lake Center
Mon 07:04:57 PM 41.7100 -107.3342 85° East 504 580 35,000  Level Salt Lake Center
Mon 07:05:58 PM 41.7242 -107.1261 85° East 501 577 35,000  Level Salt Lake Center
Mon 07:06:59 PM 41.7356 -106.9467 85° East 504 580 35,000  Level Salt Lake Center
Mon 07:08:01 PM 41.7481 -106.7389 85° East 502 578 35,000  Level Salt Lake Center
Mon 07:09:02 PM 41.7567 -106.5694 86° East 504 580 35,000  Level Salt Lake Center
Mon 07:10:04 PM 41.7683 -106.3597 86° East 505 581 35,000  Level Salt Lake Center
Mon 07:11:05 PM 41.7781 -106.1797 86° East 508 585 35,000  Level Salt Lake Center
Mon 07:12:16 PM 41.7903 -105.9403 86° East 506 582 35,000  Level Denver Center
Mon 07:13:18 PM 41.8014 -105.7619 85° East 503 579 35,000  Level Denver Center
Mon 07:14:20 PM 41.8108 -105.5814 86° East 507 583 35,000  Level Denver Center
Mon 07:15:21 PM 41.8206 -105.3722 86° East 506 582 35,000  Level Denver Center
Mon 07:16:23 PM 41.8281 -105.1928 87° East 506 582 35,000  Level Denver Center
Mon 07:17:25 PM 41.8375 -104.9817 86° East 509 586 35,000  Level Denver Center
Mon 07:18:27 PM 41.8450 -104.8006 87° East 511 588 35,000  Level Denver Center
Mon 07:19:28 PM 41.8536 -104.5917 87° East 504 580 35,000  Level Denver Center
Mon 07:20:30 PM 41.8614 -104.4114 87° East 508 585 35,000  Level Denver Center
Mon 07:21:32 PM 41.8686 -104.2014 87° East 507 583 35,000  Level Denver Center
Mon 07:22:34 PM 41.8750 -104.0225 87° East 505 581 35,000  Level Denver Center
Mon 07:23:35 PM 41.8825 -103.8111 87° East 508 585 35,000  Level Denver Center
Mon 07:24:37 PM 41.8881 -103.6314 88° East 506 582 35,000  Level Denver Center
Mon 07:25:39 PM 41.8978 -103.4519 86° East 506 582 35,000  Level Denver Center
Mon 07:26:41 PM 41.9264 -103.2472 79° East 501 577 35,000  Level Denver Center
Mon 07:27:43 PM 41.9506 -103.0731 79° East 499 574 35,000  Level Denver Center
Mon 07:28:44 PM 41.9786 -102.8672 80° East 502 578 35,000  Level Denver Center
Mon 07:29:46 PM 42.0031 -102.6892 79° East 506 582 35,000  Level Denver Center
Mon 07:30:48 PM 42.0303 -102.4819 80° East 504 580 35,000  Level Denver Center
Mon 07:31:50 PM 42.0547 -102.3028 80° East 509 586 35,000  Level Denver Center
Mon 07:32:52 PM 42.0822 -102.1000 80° East 509 586 35,000  Level Denver Center
Mon 07:33:54 PM 42.1053 -101.9206 80° East 508 585 35,000  Level Denver Center
Mon 07:34:56 PM 42.1317 -101.7094 80° East 511 588 35,000  Level Denver Center
Mon 07:35:58 PM 42.1550 -101.5292 80° East 510 587 35,000  Level Denver Center
Mon 07:36:59 PM 42.1800 -101.3167 81° East 513 590 35,000  Level Denver Center
Mon 07:38:01 PM 42.2022 -101.1358 81° East 512 589 35,000  Level Denver Center
Mon 07:39:03 PM 42.2244 -100.9514 81° East 516 594 35,000  Level Denver Center
Mon 07:40:05 PM 42.2494 -100.7375 81° East 517 595 35,000  Level Denver Center
Mon 07:41:07 PM 42.2708 -100.5536 81° East 517 595 35,000  Level Denver Center
Mon 07:42:09 PM 42.2956 -100.3367 81° East 522 601 35,000  Level Denver Center
Mon 07:43:11 PM 42.3172 -100.1514 81° East 521 600 35,000  Level Denver Center
Mon 07:43:51 PM 42.3294 -100.0308 82° East 523 602 35,000  Level Minneapolis Center
Mon 07:44:52 PM 42.3511 -99.8344 81° East 526 605 35,000  Level Minneapolis Center
Mon 07:45:54 PM 42.3722 -99.6378 82° East 526 605 35,000  Level Minneapolis Center
Mon 07:46:55 PM 42.3981 -99.4008 82° East 528 608 35,000  Level Minneapolis Center
Mon 07:47:57 PM 42.4181 -99.2028 82° East 531 611 35,000  Level Minneapolis Center
Mon 07:48:58 PM 42.4392 -99.0058 82° East 528 608 35,000  Level Minneapolis Center
Mon 07:50:00 PM 42.4589 -98.8058 82° East 533 613 35,000  Level Minneapolis Center
Mon 07:51:02 PM 42.4750 -98.6036 84° East 537 618 35,000  Level Minneapolis Center
Mon 07:52:03 PM 42.4850 -98.3997 86° East 540 621 35,000  Level Minneapolis Center
Mon 07:53:05 PM 42.4944 -98.1964 86° East 540 621 35,000  Level Minneapolis Center
Mon 07:54:06 PM 42.5039 -97.9917 86° East 542 624 35,000  Level Minneapolis Center
Mon 07:55:08 PM 42.5144 -97.7550 86° East 547 629 35,000  Level Minneapolis Center
Mon 07:56:09 PM 42.5231 -97.5506 87° East 544 626 35,000  Level Minneapolis Center
Mon 07:57:11 PM 42.5308 -97.3433 87° East 548 631 35,000  Level Minneapolis Center
Mon 07:58:13 PM 42.5392 -97.1372 87° East 548 631 35,000  Level Minneapolis Center
Mon 07:59:14 PM 42.5469 -96.9289 87° East 550 633 35,000  Level Minneapolis Center
Mon 08:00:16 PM 42.5547 -96.7206 87° East 551 634 35,000  Level Minneapolis Center
Mon 08:01:17 PM 42.5606 -96.5136 88° East 550 633 35,000  Level Minneapolis Center
Mon 08:02:19 PM 42.5678 -96.3050 87° East 553 636 35,000  Level Minneapolis Center
Mon 08:03:20 PM 42.5733 -96.0953 88° East 555 639 35,000  Level Minneapolis Center
Mon 08:04:22 PM 42.5803 -95.8439 88° East 555 639 35,000  Level Minneapolis Center
Mon 08:05:24 PM 42.5861 -95.6308 88° East 562 647 35,000  Level Minneapolis Center
Mon 08:06:25 PM 42.5906 -95.4197 88° East 560 644 35,000  Level Minneapolis Center
Mon 08:07:27 PM 42.5942 -95.2094 89° East 558 642 35,000  Level Minneapolis Center
Mon 08:08:29 PM 42.5994 -94.9989 88° East 560 644 35,000  Level Minneapolis Center
Mon 08:09:30 PM 42.6022 -94.7886 89° East 559 643 35,000  Level Minneapolis Center
Mon 08:10:32 PM 42.6069 -94.5914 88° East 560 644 35,000  Level Minneapolis Center
Mon 08:11:33 PM 42.6081 -94.3389 90° East 562 647 35,000  Level Minneapolis Center
Mon 08:12:35 PM 42.6044 -94.1286 91° East 561 646 35,000  Level Minneapolis Center
Mon 08:13:37 PM 42.5981 -93.9181 92° East 564 649 35,000  Level Minneapolis Center
Mon 08:14:38 PM 42.5917 -93.7078 92° East 563 648 35,000  Level Minneapolis Center
Mon 08:15:40 PM 42.5828 -93.4956 93° East 566 651 35,000  Level Minneapolis Center
Mon 08:16:42 PM 42.5767 -93.2844 92° East 566 651 35,000  Level Minneapolis Center
Mon 08:17:34 PM 42.5681 -93.0719 93° East 564 649 35,000  Level Chicago Center
Mon 08:18:36 PM 42.5589 -92.8594 93° East 566 651 35,000  Level Chicago Center
Mon 08:19:38 PM 42.5492 -92.6464 93° East 571 657 35,000  Level Chicago Center
Mon 08:20:40 PM 42.5400 -92.4336 93° East 571 657 35,000 -48 Level Chicago Center
Mon 08:21:42 PM 42.5286 -92.1808 93° East 569 655 34,900 -726 Descending Chicago Center
Mon 08:22:44 PM 42.5233 -91.9700 92° East 569 655 33,500 -919 Descending Chicago Center
Mon 08:23:46 PM 42.5253 -91.7589 89° East 570 656 33,000 -629 Descending Chicago Center
Mon 08:24:48 PM 42.5269 -91.5494 89° East 571 657 32,200 -919 Descending Chicago Center
Mon 08:25:50 PM 42.5272 -91.2978 90° East 569 655 31,100 -1,016 Descending Chicago Center
Mon 08:26:52 PM 42.5261 -91.0847 90° East 572 658 30,100 -968 Descending Chicago Center
Mon 08:27:54 PM 42.5261 -90.8647 90° East 588 677 29,100 -968 Descending Chicago Center
Mon 08:28:56 PM 42.5242 -90.6503 91° East 577 664 28,100 -968 Descending Chicago Center
Mon 08:29:58 PM 42.5231 -90.4386 90° East 569 655 27,100 -532 Descending Chicago Center
Mon 08:31:00 PM 42.5203 -90.1911 91° East 555 639 27,000 -484 Descending Chicago Center
Mon 08:32:02 PM 42.5189 -89.9839 90° East 555 639 26,100 -1,935 Descending Chicago Center
Mon 08:33:04 PM 42.5053 -89.7958 96° East 546 628 23,000 -3,677 Descending Chicago Center
Mon 08:34:06 PM 42.4894 -89.5753 95° East 493 567 18,500 -3,823 Descending Chicago Center
Mon 08:35:08 PM 42.4775 -89.4053 95° East 461 531 15,100 -2,613 Descending Chicago Center
Mon 08:36:10 PM 42.4664 -89.2544 96° East 414 476 13,100 -968 Descending Chicago Center
Mon 08:37:12 PM 42.4553 -89.1092 96° East 393 452 13,100  Level Chicago Center
Mon 08:38:14 PM 42.4442 -88.9639 96° East 391 450 13,100 -48 Level Chicago Center
Mon 08:39:17 PM 42.4306 -88.7936 96° East 386 444 13,000 -960 Descending Chicago Center
Mon 08:40:19 PM 42.4178 -88.6481 97° East 391 450 11,100 -919 Descending Chicago Center
Mon 08:41:21 PM 42.3797 -88.5167 111° Southeast 380 437 11,100 -48 Level Chicago Center
Mon 08:42:23 PM 42.3392 -88.3858 113° Southeast 380 437 11,000 -532 Descending Chicago Center
Mon 08:43:25 PM 42.2633 -88.2614 129° Southeast 374 430 10,000 -484 Descending Chicago Center
Mon 08:44:27 PM 42.1983 -88.1544 129° Southeast 371 427 10,000 -242 Level Chicago Center
Mon 08:45:29 PM 42.1306 -88.0725 138° Southeast 331 381 9,500 -968 Descending Chicago Center
Mon 08:46:31 PM 42.0911 -87.9844 121° Southeast 289 333 8,000 -1,087 Descending Chicago Center
Mon 08:47:47 PM 42.0833 -87.8500 94° East 223 257 7,000 -441 Descending Chicago TRACON
Mon 08:48:47 PM 42.0833 -87.7833 90° East 194 223 7,000 -400 Level Chicago TRACON
Mon 08:49:47 PM 42.0833 -87.7167 90° East 188 216 6,200 -1,050 Descending Chicago TRACON
Mon 08:50:47 PM 42.0667 -87.6500 109° East 206 237 4,900 -1,050 Descending Chicago TRACON
Mon 08:51:47 PM 42.0167 -87.6833 206° Southwest 209 241 4,100 -900 Descending Chicago TRACON
Mon 08:52:47 PM 42.0000 -87.7333 246° West 187 215 3,100 -1,000 Descending Chicago TRACON
Mon 08:53:47 PM 42.0000 -87.8000 270° West 171 197 2,100 -900 Descending Chicago TRACON
Mon 08:54:47 PM 42.0000 -87.8667 270° West 134 154 1,300 -800 Descending Chicago TRACON

Login

Don't have an account? Register now (free) for customized features, flight alerts, and more!